createdAt,value
2019-02-09T00:01:28.764Z,17.77
2019-02-09T00:03:58.415Z,18.30
2019-02-09T00:06:28.052Z,13.47
2019-02-09T00:08:58.184Z,15.53
2019-02-09T00:11:27.828Z,14.37
2019-02-09T00:13:57.513Z,14.97
2019-02-09T00:16:27.588Z,12.83
2019-02-09T00:18:57.368Z,13.07
2019-02-09T00:21:27.337Z,15.60
2019-02-09T00:23:57.147Z,12.17
2019-02-09T00:26:26.774Z,14.97
2019-02-09T00:28:56.562Z,12.00
2019-02-09T00:31:26.314Z,14.47
2019-02-09T00:33:56.806Z,15.07
2019-02-09T00:36:26.634Z,16.53
2019-02-09T00:38:56.521Z,12.20
2019-02-09T00:41:26.037Z,13.17
2019-02-09T00:43:55.850Z,17.00
2019-02-09T00:46:25.505Z,15.67
2019-02-09T00:48:55.222Z,18.73
2019-02-09T00:51:25.032Z,19.00
2019-02-09T00:53:54.906Z,15.77
2019-02-09T00:56:24.688Z,19.43
2019-02-09T00:58:54.275Z,14.83
2019-02-09T01:01:24.101Z,18.73
2019-02-09T01:03:53.867Z,16.13
2019-02-09T01:06:24.639Z,16.37
2019-02-09T01:08:54.663Z,15.33
2019-02-09T01:11:24.414Z,16.83
2019-02-09T01:13:54.381Z,12.27
2019-02-09T01:16:24.282Z,16.60
2019-02-09T01:18:54.204Z,18.20
2019-02-09T01:21:23.978Z,16.80
2019-02-09T01:23:54.391Z,12.13
2019-02-09T01:26:24.222Z,15.30
2019-02-09T01:28:53.821Z,8.17
2019-02-09T01:31:23.842Z,13.83
2019-02-09T01:33:53.643Z,11.83
2019-02-09T01:36:23.341Z,13.40
2019-02-09T01:38:54.002Z,16.90
2019-02-09T01:41:24.019Z,15.77
2019-02-09T01:43:53.813Z,16.20
2019-02-09T01:46:23.646Z,14.10
2019-02-09T01:48:53.439Z,11.67
2019-02-09T01:51:23.020Z,13.73
2019-02-09T01:53:52.588Z,15.30
2019-02-09T01:56:22.342Z,13.17
2019-02-09T01:58:52.004Z,12.63
2019-02-09T02:01:21.640Z,13.20
2019-02-09T02:03:51.469Z,17.43
2019-02-09T02:06:21.274Z,15.93
2019-02-09T02:08:51.107Z,13.33
2019-02-09T02:11:20.889Z,15.23
2019-02-09T02:13:50.461Z,9.07
2019-02-09T02:16:20.156Z,10.60
2019-02-09T02:18:49.892Z,14.57
2019-02-09T02:21:19.530Z,15.80
2019-02-09T02:23:49.249Z,13.17
2019-02-09T02:26:20.075Z,15.17
2019-02-09T02:28:49.720Z,12.23
2019-02-09T02:31:19.332Z,11.80
2019-02-09T02:33:49.200Z,13.10
2019-02-09T02:36:19.117Z,15.93
2019-02-09T02:38:48.778Z,12.13
2019-02-09T02:41:18.641Z,18.80
2019-02-09T02:43:48.358Z,12.57
2019-02-09T02:46:17.966Z,15.07
2019-02-09T02:48:47.639Z,15.70
2019-02-09T02:51:17.427Z,14.77
2019-02-09T02:53:46.954Z,13.63
2019-02-09T02:56:16.603Z,15.97
2019-02-09T02:58:46.389Z,13.23
2019-02-09T03:01:15.947Z,19.70
2019-02-09T03:03:45.669Z,18.93
2019-02-09T03:06:15.445Z,11.97
2019-02-09T03:08:45.037Z,18.67
2019-02-09T03:11:14.784Z,18.70
2019-02-09T03:13:44.366Z,20.43
2019-02-09T03:16:14.130Z,10.13
2019-02-09T03:18:43.847Z,15.63
2019-02-09T03:21:13.376Z,12.87
2019-02-09T03:23:43.060Z,15.23
2019-02-09T03:26:13.185Z,17.07
2019-02-09T03:28:42.942Z,13.83
2019-02-09T03:31:12.522Z,13.97
2019-02-09T03:33:42.521Z,17.50
2019-02-09T03:36:12.260Z,13.93
2019-02-09T03:38:42.101Z,18.23
2019-02-09T03:41:12.172Z,13.50
2019-02-09T03:43:42.188Z,11.97
2019-02-09T03:46:11.965Z,12.27
2019-02-09T03:48:41.838Z,11.67
2019-02-09T03:51:11.458Z,13.23
2019-02-09T03:53:41.265Z,13.03
2019-02-09T03:56:11.426Z,10.90
2019-02-09T03:58:41.350Z,11.40
2019-02-09T04:01:11.202Z,16.03
2019-02-09T04:03:41.178Z,17.00
2019-02-09T04:06:11.101Z,12.67
2019-02-09T04:08:41.159Z,5.60
2019-02-09T04:11:11.245Z,11.27
2019-02-09T04:13:40.974Z,15.60
2019-02-09T04:16:10.683Z,15.03
2019-02-09T04:18:40.479Z,12.57
2019-02-09T04:21:10.287Z,13.67
2019-02-09T04:23:40.138Z,12.63
2019-02-09T04:26:10.096Z,11.23
2019-02-09T04:28:39.866Z,9.17
2019-02-09T04:31:09.914Z,10.57
2019-02-09T04:33:39.809Z,14.67
2019-02-09T04:36:09.519Z,14.53
2019-02-09T04:38:39.123Z,13.30
2019-02-09T04:41:09.010Z,10.37
2019-02-09T04:43:38.739Z,12.90
2019-02-09T04:46:08.835Z,16.50
2019-02-09T04:48:38.701Z,9.80
2019-02-09T04:51:08.339Z,12.80
2019-02-09T04:53:37.950Z,13.97
2019-02-09T04:56:07.654Z,12.77
2019-02-09T04:58:37.260Z,11.60
2019-02-09T05:01:13.791Z,11.87
2019-02-09T05:03:40.054Z,9.83
2019-02-09T05:06:09.880Z,9.77
2019-02-09T05:08:39.663Z,8.97
2019-02-09T05:11:09.635Z,9.27
2019-02-09T05:13:39.430Z,10.83
2019-02-09T05:16:09.128Z,10.43
2019-02-09T05:18:38.912Z,9.83
2019-02-09T05:21:08.445Z,12.23
2019-02-09T05:23:38.281Z,10.77
2019-02-09T05:26:07.939Z,11.90
2019-02-09T05:28:37.513Z,13.27
2019-02-09T05:31:07.175Z,11.23
2019-02-09T05:33:37.337Z,18.33
2019-02-09T05:36:07.005Z,13.27
2019-02-09T05:38:36.597Z,15.87
2019-02-09T05:41:06.462Z,19.23
2019-02-09T05:43:37.388Z,16.43
2019-02-09T05:46:07.237Z,15.70
2019-02-09T05:48:36.904Z,17.30
2019-02-09T05:51:06.496Z,22.27
2019-02-09T05:53:36.155Z,20.73
2019-02-09T05:56:06.104Z,20.60
2019-02-09T05:58:35.701Z,23.17
2019-02-09T06:01:05.594Z,20.40
2019-02-09T06:03:35.106Z,17.83
2019-02-09T06:06:04.899Z,20.13
2019-02-09T06:08:34.810Z,22.00
2019-02-09T06:11:04.514Z,20.17
2019-02-09T06:13:34.022Z,24.27
2019-02-09T06:16:03.900Z,17.83
2019-02-09T06:18:33.545Z,24.70
2019-02-09T06:21:03.320Z,21.53
2019-02-09T06:23:32.983Z,27.17
2019-02-09T06:26:03.731Z,25.47
2019-02-09T06:28:33.387Z,23.20
2019-02-09T06:31:03.431Z,17.93
2019-02-09T06:33:32.951Z,9.27
2019-02-09T06:36:02.938Z,21.80
2019-02-09T06:38:32.803Z,25.93
2019-02-09T06:41:02.427Z,22.37
2019-02-09T06:43:32.237Z,27.40
2019-02-09T06:46:02.004Z,27.53
2019-02-09T06:48:32.068Z,24.10
2019-02-09T06:51:03.942Z,19.13
2019-02-09T06:53:33.957Z,23.50
2019-02-09T06:56:03.813Z,27.23
2019-02-09T06:58:33.568Z,20.60
2019-02-09T07:01:03.438Z,26.20
2019-02-09T07:03:33.125Z,29.20
2019-02-09T07:06:02.809Z,23.20
2019-02-09T07:08:32.620Z,26.27
2019-02-09T07:11:02.390Z,16.77
2019-02-09T07:13:32.041Z,16.10
2019-02-09T07:16:01.887Z,24.60
2019-02-09T07:18:31.463Z,24.20
2019-02-09T07:21:01.215Z,23.53
2019-02-09T07:23:31.033Z,23.37
2019-02-09T07:26:00.645Z,23.60
2019-02-09T07:28:33.428Z,29.53
2019-02-09T07:31:03.367Z,28.23
2019-02-09T07:33:33.094Z,21.80
2019-02-09T07:36:02.830Z,26.17
2019-02-09T07:38:32.503Z,26.57
2019-02-09T07:41:02.189Z,21.03
2019-02-09T07:43:31.996Z,18.03
2019-02-09T07:46:01.666Z,22.73
2019-02-09T07:48:31.432Z,18.63
2019-02-09T07:51:01.468Z,21.37
2019-02-09T07:53:31.268Z,25.37
2019-02-09T07:56:00.903Z,21.47
2019-02-09T07:58:30.681Z,20.73
2019-02-09T08:01:00.293Z,21.33
2019-02-09T08:03:30.065Z,27.63
2019-02-09T08:06:00.221Z,27.83
2019-02-09T08:08:29.750Z,27.50
2019-02-09T08:10:59.220Z,25.70
2019-02-09T08:13:28.911Z,26.47
2019-02-09T08:15:58.604Z,19.87
2019-02-09T08:18:28.191Z,21.13
2019-02-09T08:20:57.930Z,20.30
2019-02-09T08:23:27.921Z,25.13
2019-02-09T08:25:57.724Z,23.00
2019-02-09T08:28:27.443Z,23.27
2019-02-09T08:30:57.158Z,19.43
2019-02-09T08:33:26.859Z,20.40
2019-02-09T08:35:56.656Z,21.33
2019-02-09T08:38:26.332Z,20.13
2019-02-09T08:40:56.247Z,24.10
2019-02-09T08:43:25.906Z,20.87
2019-02-09T08:45:55.585Z,23.23
2019-02-09T08:48:25.260Z,19.73
2019-02-09T08:51:01.632Z,21.83
2019-02-09T08:53:31.372Z,31.77
2019-02-09T08:56:01.125Z,20.27
2019-02-09T08:58:30.916Z,19.47
2019-02-09T09:01:00.705Z,24.50
2019-02-09T09:03:30.430Z,21.93
2019-02-09T09:06:00.300Z,18.50
2019-02-09T09:08:29.933Z,25.43
2019-02-09T09:11:01.378Z,20.93
2019-02-09T09:13:31.385Z,25.77
2019-02-09T09:16:02.457Z,21.87
2019-02-09T09:18:32.385Z,22.20
2019-02-09T09:21:03.569Z,16.77
2019-02-09T09:23:33.425Z,22.00
2019-02-09T09:26:03.073Z,17.73
2019-02-09T09:28:33.124Z,19.80
2019-02-09T09:31:02.939Z,16.93
2019-02-09T09:33:32.883Z,14.20
2019-02-09T09:36:03.138Z,14.67
2019-02-09T09:38:33.135Z,17.37
2019-02-09T09:41:02.836Z,16.93
2019-02-09T09:43:34.145Z,11.17
2019-02-09T09:46:04.107Z,12.00
2019-02-09T09:48:33.727Z,16.10
2019-02-09T09:51:03.625Z,13.13
2019-02-09T09:53:33.578Z,17.00
2019-02-09T09:56:03.181Z,16.07
2019-02-09T09:58:32.910Z,17.07
2019-02-09T10:01:02.717Z,13.77
2019-02-09T10:03:32.753Z,16.60
2019-02-09T10:06:11.278Z,16.93
2019-02-09T10:08:42.914Z,22.80
2019-02-09T10:11:15.440Z,17.63
2019-02-09T10:13:46.043Z,18.43
2019-02-09T10:16:16.257Z,14.20
2019-02-09T10:18:46.044Z,22.63
2019-02-09T10:21:15.809Z,20.77
2019-02-09T10:23:45.582Z,16.30
2019-02-09T10:26:15.232Z,10.50
2019-02-09T10:28:44.885Z,15.53
2019-02-09T10:31:14.782Z,20.30
2019-02-09T10:33:44.450Z,19.60
2019-02-09T10:36:14.269Z,22.40
2019-02-09T10:38:44.111Z,21.03
2019-02-09T10:41:13.795Z,15.70
2019-02-09T10:43:45.961Z,14.33
2019-02-09T10:46:16.475Z,19.87
2019-02-09T10:48:46.091Z,14.40
2019-02-09T10:51:15.979Z,19.87
2019-02-09T10:53:45.674Z,23.73
2019-02-09T10:56:15.416Z,17.77
2019-02-09T10:58:45.215Z,20.80
2019-02-09T11:01:17.869Z,16.93
2019-02-09T11:03:47.823Z,20.63
2019-02-09T11:06:17.854Z,21.93
2019-02-09T11:08:47.537Z,16.63
2019-02-09T11:11:17.499Z,22.13
2019-02-09T11:13:47.238Z,21.37
2019-02-09T11:16:16.971Z,19.93
2019-02-09T11:18:46.884Z,23.20
2019-02-09T11:21:16.719Z,20.00
2019-02-09T11:23:46.366Z,23.20
2019-02-09T11:26:16.036Z,22.23
2019-02-09T11:28:45.803Z,20.07
2019-02-09T11:31:15.640Z,25.40
2019-02-09T11:33:45.723Z,27.83
2019-02-09T11:36:15.645Z,23.53
2019-02-09T11:38:45.512Z,23.20
2019-02-09T11:41:15.292Z,24.90
2019-02-09T11:43:45.264Z,17.97
2019-02-09T11:46:15.087Z,25.20
2019-02-09T11:48:44.753Z,25.97
2019-02-09T11:51:14.708Z,28.47
2019-02-09T11:53:44.500Z,24.33
2019-02-09T11:56:14.225Z,25.50
2019-02-09T11:58:43.954Z,19.17
2019-02-09T12:01:13.522Z,26.83
2019-02-09T12:03:43.125Z,25.10
2019-02-09T12:06:12.972Z,23.73
2019-02-09T12:08:42.566Z,26.93
2019-02-09T12:11:12.428Z,26.53
2019-02-09T12:13:42.391Z,23.63
2019-02-09T12:16:12.305Z,23.10
2019-02-09T12:18:42.250Z,22.53
2019-02-09T12:21:12.254Z,22.43
2019-02-09T12:23:42.065Z,20.33
2019-02-09T12:26:12.191Z,21.50
2019-02-09T12:28:42.230Z,21.67
2019-02-09T12:31:12.150Z,16.37
2019-02-09T12:33:42.029Z,20.33
2019-02-09T12:36:12.010Z,22.77
2019-02-09T12:38:41.629Z,19.03
2019-02-09T12:41:11.605Z,22.43
2019-02-09T12:43:41.609Z,16.80
2019-02-09T12:46:11.361Z,24.90
2019-02-09T12:48:41.181Z,20.60
2019-02-09T12:51:11.206Z,16.07
2019-02-09T12:53:41.006Z,23.10
2019-02-09T12:56:11.113Z,23.97
2019-02-09T12:58:40.882Z,25.37
2019-02-09T13:01:11.131Z,24.40
2019-02-09T13:03:41.436Z,23.73
2019-02-09T13:06:11.347Z,26.07
2019-02-09T13:08:40.995Z,20.67
2019-02-09T13:11:11.077Z,30.77
2019-02-09T13:13:41.141Z,23.67
2019-02-09T13:16:11.038Z,25.83
2019-02-09T13:18:41.233Z,26.27
2019-02-09T13:21:11.098Z,20.83
2019-02-09T13:23:41.176Z,17.87
2019-02-09T13:26:11.275Z,22.60
2019-02-09T13:28:41.248Z,22.13
2019-02-09T13:31:11.092Z,24.67
2019-02-09T13:33:41.177Z,26.47
2019-02-09T13:36:10.930Z,32.10
2019-02-09T13:38:41.055Z,29.03
2019-02-09T13:41:11.078Z,20.23
2019-02-09T13:43:41.133Z,24.33
2019-02-09T13:46:11.292Z,22.53
2019-02-09T13:48:41.364Z,25.90
2019-02-09T13:51:11.496Z,32.70
2019-02-09T13:53:41.362Z,23.77
2019-02-09T13:56:11.394Z,23.97
2019-02-09T13:58:41.373Z,28.00
2019-02-09T14:01:11.546Z,27.23
2019-02-09T14:03:46.697Z,27.70
2019-02-09T14:06:13.046Z,22.70
2019-02-09T14:08:42.670Z,22.37
2019-02-09T14:11:12.507Z,34.63
2019-02-09T14:13:42.486Z,27.67
2019-02-09T14:16:12.411Z,25.90
2019-02-09T14:18:42.092Z,27.50
2019-02-09T14:21:13.256Z,25.70
2019-02-09T14:23:42.949Z,29.27
2019-02-09T14:26:12.702Z,29.87
2019-02-09T14:28:45.395Z,19.93
2019-02-09T14:31:15.035Z,29.07
2019-02-09T14:33:44.668Z,17.93
2019-02-09T14:36:14.676Z,27.00
2019-02-09T14:38:44.394Z,24.73
2019-02-09T14:41:14.086Z,29.70
2019-02-09T14:43:44.117Z,30.93
2019-02-09T14:46:13.777Z,26.07
2019-02-09T14:48:43.477Z,28.27
2019-02-09T14:51:13.271Z,33.40
2019-02-09T14:53:42.890Z,31.73
2019-02-09T14:56:12.653Z,23.43
2019-02-09T14:58:42.773Z,27.63
2019-02-09T15:01:12.566Z,30.53
2019-02-09T15:03:42.481Z,29.83
2019-02-09T15:06:12.327Z,30.13
2019-02-09T15:08:42.223Z,26.50
2019-02-09T15:11:12.039Z,23.43
2019-02-09T15:13:42.002Z,24.27
2019-02-09T15:16:31.024Z,21.73
2019-02-09T15:19:00.851Z,28.27
2019-02-09T15:21:30.502Z,21.20
2019-02-09T15:24:00.210Z,28.17
2019-02-09T15:26:30.123Z,19.37
2019-02-09T15:29:00.015Z,22.93
2019-02-09T15:31:29.679Z,17.63
2019-02-09T15:33:59.480Z,27.13
2019-02-09T15:36:29.202Z,22.10
2019-02-09T15:38:59.099Z,25.53
2019-02-09T15:41:28.966Z,24.53
2019-02-09T15:43:58.729Z,26.87
2019-02-09T15:46:28.673Z,24.73
2019-02-09T15:48:58.651Z,29.97
2019-02-09T15:51:28.173Z,33.53
2019-02-09T15:53:57.848Z,25.33
2019-02-09T15:56:27.696Z,27.27
2019-02-09T15:58:57.365Z,23.93
2019-02-09T16:01:27.192Z,28.43
2019-02-09T16:03:57.204Z,23.83
2019-02-09T16:06:26.989Z,21.93
2019-02-09T16:08:56.729Z,29.77
2019-02-09T16:11:26.855Z,22.80
2019-02-09T16:13:56.517Z,25.47
2019-02-09T16:16:26.168Z,18.33
2019-02-09T16:18:56.361Z,24.30
2019-02-09T16:21:26.086Z,24.90
2019-02-09T16:23:55.754Z,18.63
2019-02-09T16:26:25.795Z,21.07
2019-02-09T16:28:55.759Z,20.03
2019-02-09T16:31:25.653Z,26.13
2019-02-09T16:33:55.595Z,20.03
2019-02-09T16:36:25.437Z,23.20
2019-02-09T16:38:55.179Z,23.87
2019-02-09T16:41:25.207Z,23.40
2019-02-09T16:43:54.908Z,19.87
2019-02-09T16:46:24.888Z,21.33
2019-02-09T16:48:54.530Z,13.73
2019-02-09T16:51:24.739Z,22.07
2019-02-09T16:53:54.432Z,17.43
2019-02-09T16:56:24.247Z,25.20
2019-02-09T16:58:53.867Z,16.53
2019-02-09T17:01:23.793Z,20.67
2019-02-09T17:03:53.609Z,22.70
2019-02-09T17:06:23.436Z,16.57
2019-02-09T17:08:53.183Z,22.03
2019-02-09T17:11:23.060Z,51.70
2019-02-09T17:13:52.604Z,19.87
2019-02-09T17:16:22.665Z,18.43
2019-02-09T17:18:52.514Z,15.77
2019-02-09T17:21:22.254Z,20.73
2019-02-09T17:23:51.875Z,17.97
2019-02-09T17:26:21.844Z,15.70
2019-02-09T17:28:51.538Z,22.10
2019-02-09T17:31:21.439Z,19.27
2019-02-09T17:33:51.300Z,18.03
2019-02-09T17:36:21.157Z,14.43
2019-02-09T17:38:51.010Z,16.73
2019-02-09T17:41:20.973Z,17.77
2019-02-09T17:43:50.600Z,18.07
2019-02-09T17:46:20.292Z,19.63
2019-02-09T17:48:50.144Z,21.77
2019-02-09T17:51:20.003Z,17.40
2019-02-09T17:53:49.736Z,18.33
2019-02-09T17:56:19.457Z,22.40
2019-02-09T17:58:49.049Z,20.27
2019-02-09T18:01:18.661Z,25.30
2019-02-09T18:03:48.534Z,15.90
2019-02-09T18:06:18.129Z,22.20
2019-02-09T18:08:47.911Z,27.33
2019-02-09T18:11:17.669Z,17.90
2019-02-09T18:13:47.260Z,23.37
2019-02-09T18:16:17.140Z,25.93
2019-02-09T18:18:46.762Z,25.83
2019-02-09T18:21:16.505Z,19.70
2019-02-09T18:23:46.403Z,20.90
2019-02-09T18:26:15.999Z,25.93
2019-02-09T18:28:45.702Z,22.13
2019-02-09T18:31:15.589Z,26.30
2019-02-09T18:33:45.214Z,21.83
2019-02-09T18:36:14.963Z,29.23
2019-02-09T18:38:46.603Z,33.40
2019-02-09T18:41:16.270Z,21.30
2019-02-09T18:43:45.930Z,23.33
2019-02-09T18:46:15.848Z,24.77
2019-02-09T18:48:45.697Z,25.90
2019-02-09T18:51:15.338Z,25.73
2019-02-09T18:53:45.313Z,34.57
2019-02-09T18:56:15.352Z,21.37
2019-02-09T18:58:45.032Z,30.27
2019-02-09T19:01:14.875Z,29.97
2019-02-09T19:03:44.401Z,31.33
2019-02-09T19:06:13.979Z,30.03
2019-02-09T19:08:43.740Z,30.93
2019-02-09T19:11:13.576Z,31.63
2019-02-09T19:13:43.273Z,31.83
2019-02-09T19:16:13.084Z,27.00
2019-02-09T19:18:42.780Z,30.97
2019-02-09T19:21:15.190Z,34.13
2019-02-09T19:23:44.896Z,38.87
2019-02-09T19:26:14.869Z,34.20
2019-02-09T19:28:44.828Z,38.13
2019-02-09T19:31:14.589Z,42.03
2019-02-09T19:33:44.221Z,33.70
2019-02-09T19:36:14.331Z,41.60
2019-02-09T19:38:43.992Z,37.27
2019-02-09T19:41:14.033Z,38.40
2019-02-09T19:43:43.739Z,53.40
2019-02-09T19:46:13.422Z,46.13
2019-02-09T19:48:43.090Z,44.20
2019-02-09T19:51:12.894Z,43.73
2019-02-09T19:53:42.616Z,42.63
2019-02-09T19:56:12.702Z,44.10
2019-02-09T19:58:42.546Z,45.03
2019-02-09T20:01:12.546Z,43.70
2019-02-09T20:03:42.567Z,73.27
2019-02-09T20:06:12.431Z,42.97
2019-02-09T20:08:42.436Z,47.70
2019-02-09T20:11:12.339Z,48.73
2019-02-09T20:13:44.402Z,42.17
2019-02-09T20:16:15.710Z,37.70
2019-02-09T20:18:45.638Z,47.93
2019-02-09T20:21:15.293Z,35.30
2019-02-09T20:23:45.081Z,44.13
2019-02-09T20:26:14.748Z,44.23
2019-02-09T20:28:44.964Z,35.90
2019-02-09T20:31:14.755Z,45.80
2019-02-09T20:33:44.383Z,36.83
2019-02-09T20:36:14.431Z,34.70
2019-02-09T20:38:44.214Z,39.70
2019-02-09T20:41:14.041Z,36.47
2019-02-09T20:43:44.103Z,24.57
2019-02-09T20:46:13.843Z,25.13
2019-02-09T20:48:43.503Z,25.70
2019-02-09T20:51:13.363Z,26.93
2019-02-09T20:53:43.156Z,26.80
2019-02-09T20:56:12.988Z,31.30
2019-02-09T20:58:42.904Z,35.73
2019-02-09T21:01:12.776Z,40.53
2019-02-09T21:03:42.682Z,47.23
2019-02-09T21:06:12.552Z,39.23
2019-02-09T21:08:42.391Z,39.90
2019-02-09T21:11:12.442Z,40.80
2019-02-09T21:13:42.483Z,40.53
2019-02-09T21:16:12.438Z,29.10
2019-02-09T21:18:42.223Z,38.83
2019-02-09T21:21:12.322Z,41.53
2019-02-09T21:23:42.151Z,27.97
2019-02-09T21:26:12.020Z,42.93
2019-02-09T21:28:42.212Z,30.03
2019-02-09T21:31:12.308Z,29.40
2019-02-09T21:33:42.185Z,34.70
2019-02-09T21:36:12.366Z,69.10
2019-02-09T21:38:42.255Z,28.47
2019-02-09T21:41:12.308Z,32.70
2019-02-09T21:43:42.625Z,25.13
2019-02-09T21:46:12.807Z,20.33
2019-02-09T21:48:42.614Z,30.10
2019-02-09T21:51:12.507Z,19.23
2019-02-09T21:53:42.839Z,18.43
2019-02-09T21:56:12.569Z,21.63
2019-02-09T21:58:42.533Z,19.67
2019-02-09T22:01:12.662Z,18.93
2019-02-09T22:03:42.873Z,19.03
2019-02-09T22:06:12.734Z,17.70
2019-02-09T22:08:43.003Z,19.10
2019-02-09T22:11:12.784Z,16.00
2019-02-09T22:13:42.542Z,24.13
2019-02-09T22:16:12.768Z,21.90
2019-02-09T22:18:42.971Z,17.77
2019-02-09T22:21:12.961Z,25.30
2019-02-09T22:23:43.148Z,29.37
2019-02-09T22:26:13.516Z,26.60
2019-02-09T22:28:43.324Z,25.57
2019-02-09T22:31:21.531Z,28.60
2019-02-09T22:33:44.890Z,27.07
2019-02-09T22:36:14.746Z,28.50
2019-02-09T22:38:44.419Z,26.97
2019-02-09T22:41:14.163Z,24.50
2019-02-09T22:43:43.921Z,28.47
2019-02-09T22:46:13.657Z,34.33
2019-02-09T22:48:43.370Z,32.07
2019-02-09T22:51:13.202Z,33.40
2019-02-09T22:53:42.857Z,26.83
2019-02-09T22:56:12.871Z,31.40
2019-02-09T22:58:42.716Z,37.10
2019-02-09T23:01:26.926Z,35.67
2019-02-09T23:04:37.408Z,43.93
2019-02-09T23:07:15.389Z,42.13
2019-02-09T23:09:45.167Z,36.87
2019-02-09T23:12:14.812Z,33.37
2019-02-09T23:14:44.751Z,42.87
2019-02-09T23:17:14.587Z,51.80
2019-02-09T23:19:44.545Z,44.70
2019-02-09T23:22:14.151Z,37.00
2019-02-09T23:24:44.037Z,37.13
2019-02-09T23:27:13.808Z,46.53
2019-02-09T23:29:43.402Z,35.10
2019-02-09T23:32:13.225Z,48.47
2019-02-09T23:34:43.074Z,39.93
2019-02-09T23:37:12.728Z,57.70
2019-02-09T23:39:42.676Z,53.80
2019-02-09T23:42:12.654Z,41.73
2019-02-09T23:44:42.448Z,30.93
2019-02-09T23:47:12.268Z,48.67
2019-02-09T23:49:42.379Z,47.83
2019-02-09T23:52:12.418Z,56.83
2019-02-09T23:54:42.513Z,31.37
2019-02-09T23:57:12.670Z,51.60
2019-02-09T23:59:42.556Z,52.10
